Ackworth, Iowa
Current Conditions -  °F | °C
As of 2:51 AM on Wednesday 26 Nov 2014 (Local Time) from KDSM Reporting Station
Light Snow Light Snow  
Wind Chill: 21°   Ceiling: 1000
Heat Index: 30°   Visibility: 1.7mi
Dew Point: 27°   Wind: 10mph
Humidity: 86%   Direction: 150°SSE
Pressure: 29.94"   Gusts: NA
Location:  41.37°N, 93.47°W
Report Text: KDSM 260851Z 15009KT 1 3/4SM -SN BR OVC010 M01/M03 A2994 RMK AO2 SNB0755 P0002
Loading
Personal Weather Stations






























Interactive Weather Map New forecast layout! Learn more

10-Day Weather Forecast

Advertisements
Track Severe Weather on mobile